Time;durP1;ratioP1;P1;durP2;ratioP2;P2;SDS_P1;SDS_P2;PMS_P1;PMS_P2;Temp;Humidity;BMP_temperature;BMP_pressure;BME280_temperature;BME280_humidity;BME280_pressure;Samples;Min_cycle;Max_cycle;Signal;HPM_P1;HPM_P2
2022/03/28 00:02:16;;;;;;;24.83;14.07;;;;;;;;;;777567;179;629825;-61
2022/03/28 00:04:42;;;;;;;27.73;15.07;;;;;;;;;;774860;179;638122;-61
2022/03/28 00:07:08;;;;;;;33.73;13.80;;;;;;;;;;778132;180;625776;-61
2022/03/28 00:09:34;;;;;;;23.10;13.97;;;;;;;;;;772464;179;624805;-61
2022/03/28 00:12:00;;;;;;;28.93;14.77;;;;;;;;;;772918;179;629399;-61
2022/03/28 00:14:26;;;;;;;26.77;13.80;;;;;;;;;;782445;179;626020;-61
2022/03/28 00:16:51;;;;;;;25.60;14.80;;;;;;;;;;779484;178;918931;-61
2022/03/28 00:19:17;;;;;;;24.77;13.77;;;;;;;;;;781657;179;919629;-61
2022/03/28 00:21:43;;;;;;;19.45;12.55;;;;;;;;;;774209;179;919519;-60
2022/03/28 00:24:09;;;;;;;26.90;13.20;;;;;;;;;;768254;179;919591;-61
2022/03/28 00:26:35;;;;;;;26.27;14.30;;;;;;;;;;768005;180;918467;-60
2022/03/28 00:29:01;;;;;;;20.33;13.13;;;;;;;;;;767581;181;919362;-60
2022/03/28 00:31:27;;;;;;;20.70;11.70;;;;;;;;;;774833;181;919485;-60
2022/03/28 00:33:52;;;;;;;25.33;13.98;;;;;;;;;;767909;177;920059;-60
2022/03/28 00:36:18;;;;;;;21.93;12.97;;;;;;;;;;778308;178;934043;-60
2022/03/28 00:38:44;;;;;;;22.80;13.17;;;;;;;;;;785120;179;919671;-61
2022/03/28 00:41:10;;;;;;;21.20;12.93;;;;;;;;;;780980;177;919935;-61
2022/03/28 00:43:37;;;;;;;21.03;13.03;;;;;;;;;;782760;177;1022332;-61
2022/03/28 00:46:02;;;;;;;23.13;13.77;;;;;;;;;;777196;180;911198;-60
2022/03/28 00:48:28;;;;;;;23.98;13.55;;;;;;;;;;780859;176;918885;-61
2022/03/28 00:50:56;;;;;;;24.17;14.10;;;;;;;;;;782062;177;1021392;-62
2022/03/28 00:53:19;;;;;;;25.90;13.70;;;;;;;;;;774508;180;919376;-60
2022/03/28 00:55:45;;;;;;;28.67;14.03;;;;;;;;;;768273;180;918255;-61
2022/03/28 00:58:11;;;;;;;21.47;13.10;;;;;;;;;;770543;179;920294;-60
2022/03/28 01:00:37;;;;;;;20.67;13.37;;;;;;;;;;774675;179;919697;-60
2022/03/28 01:03:03;;;;;;;28.83;14.40;;;;;;;;;;773124;180;921332;-60
2022/03/28 01:05:31;;;;;;;25.93;15.27;;;;;;;;;;768678;179;919046;-60
2022/03/28 01:07:56;;;;;;;22.27;13.67;;;;;;;;;;770589;179;918318;-60
2022/03/28 01:10:20;;;;;;;20.57;13.23;;;;;;;;;;774765;180;1020969;-60
2022/03/28 01:12:46;;;;;;;22.73;14.33;;;;;;;;;;774290;178;918963;-60
2022/03/28 01:15:13;;;;;;;25.00;12.80;;;;;;;;;;772364;179;913708;-61
2022/03/28 01:20:11;;;;;;;21.67;13.10;;;;;;;;;;773904;179;920037;-60
2022/03/28 01:22:37;;;;;;;25.90;12.70;;;;;;;;;;780197;177;920049;-61
2022/03/28 01:25:02;;;;;;;20.02;13.85;;;;;;;;;;769826;179;994331;-61
2022/03/28 01:27:28;;;;;;;21.63;14.03;;;;;;;;;;770078;179;920195;-60
2022/03/28 01:29:54;;;;;;;22.30;14.05;;;;;;;;;;765826;182;919419;-61
2022/03/28 01:32:20;;;;;;;23.57;12.90;;;;;;;;;;768106;180;932694;-60
2022/03/28 01:34:46;;;;;;;19.70;12.40;;;;;;;;;;773379;182;919741;-60
2022/03/28 01:37:12;;;;;;;23.93;13.13;;;;;;;;;;770919;180;919854;-61
2022/03/28 01:39:37;;;;;;;20.53;14.17;;;;;;;;;;777436;177;919610;-60
2022/03/28 01:42:03;;;;;;;21.97;13.17;;;;;;;;;;774772;179;920767;-60
2022/03/28 01:44:29;;;;;;;21.17;12.70;;;;;;;;;;781381;180;919368;-61
2022/03/28 01:46:55;;;;;;;26.43;14.03;;;;;;;;;;768184;180;919106;-61
2022/03/28 01:49:21;;;;;;;21.43;13.23;;;;;;;;;;771556;179;619205;-60
2022/03/28 01:51:47;;;;;;;21.63;13.03;;;;;;;;;;781394;178;634653;-61
2022/03/28 01:54:13;;;;;;;26.17;13.93;;;;;;;;;;785544;178;914598;-60
2022/03/28 01:56:38;;;;;;;21.80;13.17;;;;;;;;;;775396;178;916361;-60
2022/03/28 01:59:04;;;;;;;25.30;14.50;;;;;;;;;;789372;177;916397;-67
2022/03/28 02:01:30;;;;;;;20.75;13.48;;;;;;;;;;782958;178;905520;-60
2022/03/28 02:03:57;;;;;;;21.90;12.70;;;;;;;;;;780076;179;920369;-61
2022/03/28 02:06:22;;;;;;;19.23;12.90;;;;;;;;;;779191;177;920179;-60
2022/03/28 02:08:48;;;;;;;20.80;13.27;;;;;;;;;;774122;177;918787;-60
2022/03/28 02:11:14;;;;;;;21.47;13.47;;;;;;;;;;779500;177;919082;-60
2022/03/28 02:13:39;;;;;;;22.70;13.80;;;;;;;;;;769513;179;919933;-60
2022/03/28 02:16:06;;;;;;;23.27;14.23;;;;;;;;;;776774;179;920005;-60
2022/03/28 02:18:32;;;;;;;21.47;12.70;;;;;;;;;;785341;177;934537;-60
2022/03/28 02:20:57;;;;;;;23.77;12.90;;;;;;;;;;783667;176;917865;-60
2022/03/28 02:23:23;;;;;;;23.80;13.47;;;;;;;;;;781430;177;916901;-60
2022/03/28 02:25:49;;;;;;;25.80;14.73;;;;;;;;;;775829;179;916683;-60
2022/03/28 02:28:15;;;;;;;20.75;12.95;;;;;;;;;;768621;179;916781;-60
2022/03/28 02:30:42;;;;;;;24.95;13.73;;;;;;;;;;769343;179;916362;-59
2022/03/28 02:33:07;;;;;;;22.67;15.10;;;;;;;;;;789044;176;919368;-61
2022/03/28 02:35:33;;;;;;;25.23;14.93;;;;;;;;;;780907;175;919434;-60
2022/03/28 02:38:01;;;;;;;20.27;13.00;;;;;;;;;;768325;180;951951;-60
2022/03/28 02:40:25;;;;;;;23.30;13.97;;;;;;;;;;773954;179;923929;-60
2022/03/28 02:42:50;;;;;;;17.90;13.15;;;;;;;;;;776454;178;920204;-60
2022/03/28 02:45:16;;;;;;;28.37;13.73;;;;;;;;;;775902;179;919288;-60
2022/03/28 02:47:42;;;;;;;22.47;13.73;;;;;;;;;;771713;179;919948;-60
2022/03/28 02:50:08;;;;;;;21.67;13.07;;;;;;;;;;765272;180;918854;-60
2022/03/28 02:52:34;;;;;;;21.37;13.50;;;;;;;;;;776705;177;919818;-60
2022/03/28 02:55:00;;;;;;;25.20;14.10;;;;;;;;;;784473;175;925811;-60
2022/03/28 02:57:26;;;;;;;23.02;13.32;;;;;;;;;;776810;179;919223;-60
2022/03/28 02:59:52;;;;;;;28.67;13.80;;;;;;;;;;776116;179;919087;-59
2022/03/28 03:02:17;;;;;;;18.80;12.80;;;;;;;;;;776496;177;919629;-60
2022/03/28 03:04:43;;;;;;;24.70;14.27;;;;;;;;;;781779;179;919606;-60
2022/03/28 03:07:09;;;;;;;24.13;14.20;;;;;;;;;;776745;176;919216;-60
2022/03/28 03:09:35;;;;;;;19.97;12.60;;;;;;;;;;775120;180;920317;-60
2022/03/28 03:12:01;;;;;;;24.17;13.57;;;;;;;;;;778626;180;918634;-60
2022/03/28 03:14:27;;;;;;;27.90;14.05;;;;;;;;;;769778;178;924346;-60
2022/03/28 03:16:52;;;;;;;21.93;13.27;;;;;;;;;;770189;179;918969;-59
2022/03/28 03:19:18;;;;;;;21.90;13.70;;;;;;;;;;773764;181;918969;-59
2022/03/28 03:21:46;;;;;;;25.37;12.77;;;;;;;;;;767298;181;919788;-60
2022/03/28 03:24:10;;;;;;;19.37;13.07;;;;;;;;;;784549;177;920035;-60
2022/03/28 03:26:36;;;;;;;28.55;12.93;;;;;;;;;;775830;177;919379;-59
2022/03/28 03:29:02;;;;;;;22.70;12.60;;;;;;;;;;776437;179;919661;-59
2022/03/28 03:31:27;;;;;;;22.70;12.80;;;;;;;;;;771765;177;922643;-60
2022/03/28 03:33:53;;;;;;;24.77;13.63;;;;;;;;;;765641;179;1022168;-59
2022/03/28 03:36:19;;;;;;;20.90;12.57;;;;;;;;;;773702;182;919144;-60
2022/03/28 03:38:45;;;;;;;20.63;12.50;;;;;;;;;;770743;180;920081;-60
2022/03/28 03:41:11;;;;;;;19.13;11.40;;;;;;;;;;762232;180;919456;-59
2022/03/28 03:43:37;;;;;;;19.30;12.10;;;;;;;;;;769890;180;918926;-60
2022/03/28 03:46:03;;;;;;;19.90;12.50;;;;;;;;;;764551;179;1128570;-60
2022/03/28 03:48:29;;;;;;;24.00;12.63;;;;;;;;;;777453;179;920264;-60
2022/03/28 03:50:56;;;;;;;22.70;12.77;;;;;;;;;;778413;180;920186;-59
2022/03/28 03:53:21;;;;;;;22.33;12.13;;;;;;;;;;770458;179;919920;-59
2022/03/28 03:55:47;;;;;;;25.27;12.33;;;;;;;;;;768684;179;920581;-60
2022/03/28 03:58:13;;;;;;;16.70;12.00;;;;;;;;;;780581;177;919120;-59
2022/03/28 04:00:39;;;;;;;21.63;12.33;;;;;;;;;;781351;177;919935;-60
2022/03/28 04:03:05;;;;;;;23.35;13.70;;;;;;;;;;773788;179;918062;-58
2022/03/28 04:05:31;;;;;;;23.13;14.10;;;;;;;;;;770542;179;916504;-59
2022/03/28 04:07:56;;;;;;;20.80;15.50;;;;;;;;;;776043;179;910053;-60
2022/03/28 04:10:22;;;;;;;24.40;13.33;;;;;;;;;;764657;179;922148;-59
2022/03/28 04:12:48;;;;;;;21.10;12.50;;;;;;;;;;775083;179;921275;-60
2022/03/28 04:15:14;;;;;;;19.93;12.60;;;;;;;;;;777668;178;916064;-60
2022/03/28 04:17:40;;;;;;;18.60;11.60;;;;;;;;;;772546;178;933538;-60
2022/03/28 04:20:06;;;;;;;20.17;12.40;;;;;;;;;;773504;179;919350;-60
2022/03/28 04:22:32;;;;;;;22.43;12.90;;;;;;;;;;772465;180;1191289;-60
2022/03/28 04:24:58;;;;;;;24.33;12.47;;;;;;;;;;773450;179;1125334;-62
2022/03/28 04:27:24;;;;;;;18.63;12.60;;;;;;;;;;769350;179;919583;-60
2022/03/28 04:29:50;;;;;;;18.90;12.13;;;;;;;;;;768890;179;919483;-60
2022/03/28 04:32:16;;;;;;;22.53;12.17;;;;;;;;;;779247;179;902591;-61
2022/03/28 04:34:41;;;;;;;23.93;13.77;;;;;;;;;;777285;179;919562;-60
2022/03/28 04:37:07;;;;;;;25.10;12.37;;;;;;;;;;773712;179;918634;-60
2022/03/28 04:39:33;;;;;;;23.00;13.00;;;;;;;;;;777409;179;919533;-60
2022/03/28 04:41:59;;;;;;;18.50;12.97;;;;;;;;;;774869;179;871196;-62
2022/03/28 04:44:25;;;;;;;22.37;12.33;;;;;;;;;;770946;179;919231;-60
2022/03/28 04:46:50;;;;;;;20.03;12.17;;;;;;;;;;773031;179;919617;-61
2022/03/28 04:49:17;;;;;;;21.03;13.00;;;;;;;;;;776977;178;652430;-60
2022/03/28 04:51:42;;;;;;;19.37;13.27;;;;;;;;;;763962;180;979685;-60
2022/03/28 04:54:08;;;;;;;19.10;12.03;;;;;;;;;;767041;179;920866;-61
2022/03/28 04:56:34;;;;;;;24.43;13.70;;;;;;;;;;775783;179;919289;-61
2022/03/28 04:59:00;;;;;;;22.70;13.73;;;;;;;;;;773050;179;918528;-61
2022/03/28 05:01:26;;;;;;;21.57;12.97;;;;;;;;;;774180;179;864059;-60
2022/03/28 05:03:51;;;;;;;24.90;13.60;;;;;;;;;;779151;179;642797;-61
2022/03/28 05:06:17;;;;;;;20.90;13.63;;;;;;;;;;770917;180;624298;-60
2022/03/28 05:08:43;;;;;;;24.60;15.27;;;;;;;;;;777623;179;920539;-60
2022/03/28 05:11:09;;;;;;;24.63;15.63;;;;;;;;;;779063;179;816567;-60
2022/03/28 05:13:35;;;;;;;23.70;15.30;;;;;;;;;;781549;179;613400;-61
2022/03/28 05:16:02;;;;;;;26.37;14.50;;;;;;;;;;772980;177;918104;-60
2022/03/28 05:18:27;;;;;;;26.40;16.60;;;;;;;;;;773874;179;921269;-60
2022/03/28 05:20:52;;;;;;;32.03;20.50;;;;;;;;;;784683;178;629822;-60
2022/03/28 05:23:18;;;;;;;38.00;21.03;;;;;;;;;;773690;177;986260;-60
2022/03/28 05:25:44;;;;;;;31.57;16.90;;;;;;;;;;771697;179;919634;-60
2022/03/28 05:28:10;;;;;;;38.63;18.33;;;;;;;;;;776254;179;1020413;-60
2022/03/28 05:30:36;;;;;;;24.77;15.30;;;;;;;;;;771123;179;919618;-60
2022/03/28 05:33:02;;;;;;;26.50;17.50;;;;;;;;;;771413;180;919532;-60
2022/03/28 05:35:28;;;;;;;24.70;15.10;;;;;;;;;;775536;180;918411;-60
2022/03/28 05:37:53;;;;;;;29.23;16.40;;;;;;;;;;780505;179;624099;-61
2022/03/28 05:40:19;;;;;;;25.37;15.30;;;;;;;;;;770728;179;915580;-60
2022/03/28 05:42:45;;;;;;;25.00;15.57;;;;;;;;;;770756;180;916227;-59
2022/03/28 05:45:11;;;;;;;31.00;16.80;;;;;;;;;;774532;180;919296;-60
2022/03/28 05:47:37;;;;;;;27.83;17.37;;;;;;;;;;779297;177;914938;-59
2022/03/28 05:50:03;;;;;;;23.80;15.57;;;;;;;;;;782794;177;919909;-60
2022/03/28 05:52:28;;;;;;;24.37;16.40;;;;;;;;;;776695;179;919313;-60
2022/03/28 05:54:54;;;;;;;30.60;16.70;;;;;;;;;;771645;180;919692;-60
2022/03/28 05:57:20;;;;;;;27.13;16.63;;;;;;;;;;771437;180;919229;-60
2022/03/28 05:59:46;;;;;;;33.17;17.08;;;;;;;;;;775334;180;919786;-60
2022/03/28 06:02:12;;;;;;;36.60;18.03;;;;;;;;;;768117;180;919662;-59
2022/03/28 06:04:38;;;;;;;23.77;15.17;;;;;;;;;;770785;179;924889;-60
2022/03/28 06:07:04;;;;;;;25.23;15.80;;;;;;;;;;768058;182;919948;-59
2022/03/28 06:09:30;;;;;;;24.27;14.45;;;;;;;;;;777847;179;919628;-60
2022/03/28 06:11:55;;;;;;;28.50;15.20;;;;;;;;;;767243;180;919851;-60
2022/03/28 06:14:21;;;;;;;21.07;13.17;;;;;;;;;;764587;182;920500;-60
2022/03/28 06:16:47;;;;;;;22.13;14.53;;;;;;;;;;771292;179;918514;-61
2022/03/28 06:19:13;;;;;;;22.30;14.83;;;;;;;;;;775299;177;919868;-60
2022/03/28 06:21:39;;;;;;;25.63;15.83;;;;;;;;;;774503;180;919147;-59
2022/03/28 06:24:06;;;;;;;33.40;18.17;;;;;;;;;;783409;177;921167;-60
2022/03/28 06:26:31;;;;;;;26.13;14.47;;;;;;;;;;778665;177;918605;-61
2022/03/28 06:28:57;;;;;;;26.30;14.43;;;;;;;;;;773875;179;905930;-61
2022/03/28 06:31:23;;;;;;;21.20;13.63;;;;;;;;;;777307;178;921640;-60
2022/03/28 06:33:51;;;;;;;24.73;13.70;;;;;;;;;;778521;178;920683;-60
2022/03/28 06:36:15;;;;;;;21.90;11.13;;;;;;;;;;782251;176;920727;-60
2022/03/28 06:38:41;;;;;;;25.87;15.20;;;;;;;;;;776666;178;954112;-60
2022/03/28 06:41:07;;;;;;;20.73;13.27;;;;;;;;;;773155;180;917926;-60
2022/03/28 06:43:33;;;;;;;21.63;12.10;;;;;;;;;;778106;177;975619;-61
2022/03/28 06:45:59;;;;;;;30.70;13.77;;;;;;;;;;771256;180;916312;-61
2022/03/28 06:48:24;;;;;;;22.60;11.33;;;;;;;;;;775196;178;916449;-61
2022/03/28 06:50:50;;;;;;;22.03;11.80;;;;;;;;;;771506;179;915496;-61
2022/03/28 06:53:16;;;;;;;16.50;9.60;;;;;;;;;;778016;179;915000;-60
2022/03/28 06:55:43;;;;;;;23.80;9.45;;;;;;;;;;773989;179;919562;-60
2022/03/28 06:58:09;;;;;;;21.60;9.40;;;;;;;;;;772310;178;898910;-61
2022/03/28 07:00:35;;;;;;;24.07;9.40;;;;;;;;;;770038;179;920260;-60
2022/03/28 07:03:00;;;;;;;16.92;8.70;;;;;;;;;;770189;179;919214;-60
2022/03/28 07:05:28;;;;;;;12.83;7.97;;;;;;;;;;780638;177;916093;-60
2022/03/28 07:07:52;;;;;;;15.20;8.60;;;;;;;;;;775561;177;896118;-60
2022/03/28 07:10:18;;;;;;;17.53;7.60;;;;;;;;;;775782;179;915118;-60
2022/03/28 07:12:44;;;;;;;15.60;6.97;;;;;;;;;;782681;177;916780;-60
2022/03/28 07:15:10;;;;;;;10.20;6.40;;;;;;;;;;779943;179;616684;-61
2022/03/28 07:17:41;;;;;;;10.02;6.07;;;;;;;;;;776527;179;919345;-60
2022/03/28 07:20:07;;;;;;;12.33;6.70;;;;;;;;;;776820;179;920925;-61
2022/03/28 07:22:34;;;;;;;13.17;7.03;;;;;;;;;;779657;179;881517;-61
2022/03/28 07:24:59;;;;;;;11.77;4.70;;;;;;;;;;774831;177;927771;-61
2022/03/28 07:27:25;;;;;;;9.95;5.20;;;;;;;;;;774426;179;922681;-60
2022/03/28 07:29:51;;;;;;;10.27;5.43;;;;;;;;;;772223;180;914466;-61
2022/03/28 07:32:17;;;;;;;13.57;4.50;;;;;;;;;;764807;180;916876;-61
2022/03/28 07:34:42;;;;;;;8.43;4.17;;;;;;;;;;763902;182;981020;-61
2022/03/28 07:37:10;;;;;;;11.43;5.10;;;;;;;;;;773054;179;919103;-61
2022/03/28 07:39:37;;;;;;;10.73;5.87;;;;;;;;;;776047;179;920471;-61
2022/03/28 07:42:00;;;;;;;14.57;6.25;;;;;;;;;;786310;179;936177;-62
2022/03/28 07:44:26;;;;;;;11.37;5.57;;;;;;;;;;775844;179;629197;-62
2022/03/28 07:46:52;;;;;;;8.20;5.07;;;;;;;;;;773764;180;643094;-62
2022/03/28 07:49:18;;;;;;;10.27;4.37;;;;;;;;;;772217;180;882850;-62
2022/03/28 07:51:43;;;;;;;7.90;4.10;;;;;;;;;;768330;179;899555;-62
2022/03/28 07:54:09;;;;;;;9.90;5.40;;;;;;;;;;773584;176;918116;-61
2022/03/28 07:56:35;;;;;;;8.07;4.80;;;;;;;;;;772013;179;917620;-62
2022/03/28 07:59:01;;;;;;;9.15;5.00;;;;;;;;;;769560;180;919916;-62
2022/03/28 08:01:27;;;;;;;6.63;4.53;;;;;;;;;;771056;181;1021209;-60
2022/03/28 08:03:53;;;;;;;15.83;6.20;;;;;;;;;;765188;180;920521;-62
2022/03/28 08:06:18;;;;;;;10.30;5.87;;;;;;;;;;779621;177;919220;-63
2022/03/28 08:08:44;;;;;;;12.53;5.30;;;;;;;;;;777268;176;921210;-62
2022/03/28 08:11:11;;;;;;;14.70;6.53;;;;;;;;;;780002;180;920378;-60
2022/03/28 08:13:36;;;;;;;11.13;5.80;;;;;;;;;;775117;179;921470;-61
2022/03/28 08:16:02;;;;;;;11.43;4.90;;;;;;;;;;772924;179;628811;-61
2022/03/28 08:18:28;;;;;;;10.13;5.50;;;;;;;;;;784448;177;642574;-61
2022/03/28 08:20:54;;;;;;;6.90;4.23;;;;;;;;;;767628;179;917769;-61
2022/03/28 08:23:22;;;;;;;9.23;4.87;;;;;;;;;;765463;181;1023167;-62
2022/03/28 08:25:48;;;;;;;7.37;4.07;;;;;;;;;;774255;181;897523;-62
2022/03/28 08:28:14;;;;;;;10.60;5.63;;;;;;;;;;768904;179;870445;-62
2022/03/28 08:30:40;;;;;;;8.30;4.22;;;;;;;;;;785095;177;918126;-61
2022/03/28 08:33:06;;;;;;;8.80;3.70;;;;;;;;;;776102;180;919959;-63
2022/03/28 08:35:31;;;;;;;6.93;3.83;;;;;;;;;;766262;181;918323;-61
2022/03/28 08:37:58;;;;;;;11.17;5.00;;;;;;;;;;771656;179;920749;-62
2022/03/28 08:40:23;;;;;;;10.97;4.80;;;;;;;;;;776533;179;924662;-61
2022/03/28 08:42:49;;;;;;;7.03;4.50;;;;;;;;;;783947;180;920090;-61
2022/03/28 08:45:15;;;;;;;10.60;4.37;;;;;;;;;;769614;180;1023916;-61
2022/03/28 08:47:42;;;;;;;8.13;4.67;;;;;;;;;;763331;180;920155;-62
2022/03/28 08:50:07;;;;;;;10.80;4.53;;;;;;;;;;772316;179;919458;-63
2022/03/28 08:52:32;;;;;;;8.30;4.13;;;;;;;;;;764918;179;920268;-62
2022/03/28 08:54:58;;;;;;;9.70;4.20;;;;;;;;;;765724;179;1013654;-63
2022/03/28 08:57:24;;;;;;;6.70;4.20;;;;;;;;;;771341;179;919370;-61
2022/03/28 08:59:50;;;;;;;8.23;4.67;;;;;;;;;;774266;178;921631;-62
2022/03/28 09:02:22;;;;;;;11.65;4.95;;;;;;;;;;757091;184;1068840;-63
2022/03/28 09:04:48;;;;;;;6.63;4.03;;;;;;;;;;771093;180;921021;-64
2022/03/28 09:07:14;;;;;;;11.63;4.70;;;;;;;;;;789573;178;920038;-64
2022/03/28 09:09:39;;;;;;;14.43;5.50;;;;;;;;;;780452;176;820275;-63
2022/03/28 09:12:06;;;;;;;7.93;4.67;;;;;;;;;;771427;179;913397;-63
2022/03/28 09:14:31;;;;;;;8.60;5.47;;;;;;;;;;783783;179;635213;-63
2022/03/28 09:16:59;;;;;;;7.63;4.07;;;;;;;;;;777717;179;919297;-64
2022/03/28 09:19:25;;;;;;;10.60;5.60;;;;;;;;;;776040;179;912408;-62
2022/03/28 09:21:51;;;;;;;10.10;5.20;;;;;;;;;;772334;180;920697;-62
2022/03/28 09:24:16;;;;;;;11.00;5.40;;;;;;;;;;774967;177;915191;-63
2022/03/28 09:26:42;;;;;;;8.67;5.00;;;;;;;;;;784430;176;921171;-64
2022/03/28 09:29:08;;;;;;;9.13;4.93;;;;;;;;;;778783;176;916191;-63
2022/03/28 09:31:37;;;;;;;9.60;4.90;;;;;;;;;;776566;178;916573;-63
2022/03/28 09:34:03;;;;;;;9.63;5.37;;;;;;;;;;774282;178;937213;-64
2022/03/28 09:36:41;;;;;;;14.82;8.40;;;;;;;;;;773428;177;1021563;-63
2022/03/28 09:39:07;;;;;;;14.00;7.20;;;;;;;;;;773190;178;923866;-65
2022/03/28 09:41:33;;;;;;;12.53;6.83;;;;;;;;;;774043;178;816289;-64
2022/03/28 09:43:58;;;;;;;11.27;5.43;;;;;;;;;;771270;179;919504;-63
2022/03/28 09:46:25;;;;;;;14.67;6.40;;;;;;;;;;768164;179;919266;-63
2022/03/28 09:48:50;;;;;;;12.90;7.40;;;;;;;;;;770530;180;919269;-65
2022/03/28 09:51:16;;;;;;;17.10;8.80;;;;;;;;;;776448;179;918235;-65
2022/03/28 09:53:42;;;;;;;13.70;7.57;;;;;;;;;;779431;179;919111;-64
2022/03/28 09:56:08;;;;;;;14.97;6.77;;;;;;;;;;773347;180;938060;-62
2022/03/28 09:58:37;;;;;;;12.57;7.73;;;;;;;;;;772745;180;917959;-64
2022/03/28 10:01:02;;;;;;;14.83;8.40;;;;;;;;;;778698;179;919761;-65
2022/03/28 10:03:30;;;;;;;18.00;8.10;;;;;;;;;;778050;179;921157;-64
2022/03/28 10:05:56;;;;;;;15.27;7.90;;;;;;;;;;767136;179;919928;-63
2022/03/28 10:08:22;;;;;;;13.70;8.20;;;;;;;;;;783379;176;915271;-64
2022/03/28 10:10:47;;;;;;;15.87;7.73;;;;;;;;;;766320;179;919211;-66
2022/03/28 10:13:13;;;;;;;11.80;6.63;;;;;;;;;;779900;178;919100;-63
2022/03/28 10:15:39;;;;;;;13.67;6.07;;;;;;;;;;774879;178;918955;-66
2022/03/28 10:18:05;;;;;;;13.77;8.40;;;;;;;;;;770673;178;918756;-65
2022/03/28 10:20:31;;;;;;;12.17;7.30;;;;;;;;;;776527;177;920609;-63
2022/03/28 10:22:57;;;;;;;14.17;8.00;;;;;;;;;;782274;179;920155;-64
2022/03/28 10:25:23;;;;;;;11.23;7.60;;;;;;;;;;782646;177;921160;-65
2022/03/28 10:27:48;;;;;;;13.53;8.30;;;;;;;;;;771697;178;920305;-63
2022/03/28 10:30:20;;;;;;;14.00;7.97;;;;;;;;;;781012;179;919789;-65
2022/03/28 10:32:45;;;;;;;12.43;7.40;;;;;;;;;;771479;182;914304;-63
2022/03/28 10:35:13;;;;;;;13.80;7.13;;;;;;;;;;769574;180;915798;-64
2022/03/28 10:37:40;;;;;;;11.37;7.23;;;;;;;;;;767759;179;916554;-65
2022/03/28 10:40:11;;;;;;;11.07;6.27;;;;;;;;;;775848;180;919445;-65
2022/03/28 10:42:37;;;;;;;11.17;7.00;;;;;;;;;;778826;180;919581;-64
2022/03/28 10:45:03;;;;;;;14.70;6.80;;;;;;;;;;785849;175;894544;-65
2022/03/28 10:47:35;;;;;;;14.57;7.27;;;;;;;;;;767432;181;926997;-66
2022/03/28 10:50:00;;;;;;;12.30;7.30;;;;;;;;;;772687;178;919144;-67
2022/03/28 10:52:26;;;;;;;13.40;7.17;;;;;;;;;;765103;180;919452;-65
2022/03/28 10:54:52;;;;;;;11.77;6.13;;;;;;;;;;767877;180;1017349;-67
2022/03/28 10:57:25;;;;;;;12.90;7.10;;;;;;;;;;784195;177;917431;-66
2022/03/28 11:00:00;;;;;;;15.77;7.40;;;;;;;;;;785484;177;639512;-65
2022/03/28 11:02:26;;;;;;;14.07;7.83;;;;;;;;;;771093;179;918952;-65
2022/03/28 11:04:52;;;;;;;9.98;6.55;;;;;;;;;;769066;179;918889;-65
2022/03/28 11:07:22;;;;;;;14.50;7.60;;;;;;;;;;783736;179;919025;-66
2022/03/28 11:09:49;;;;;;;12.17;7.77;;;;;;;;;;785671;179;919400;-64
2022/03/28 11:12:18;;;;;;;12.50;6.77;;;;;;;;;;776353;179;920165;-68
2022/03/28 11:14:44;;;;;;;13.45;7.15;;;;;;;;;;770550;179;919160;-66
2022/03/28 11:17:12;;;;;;;11.53;6.37;;;;;;;;;;773743;178;935751;-64
2022/03/28 11:19:38;;;;;;;12.43;7.80;;;;;;;;;;781122;178;919327;-65
2022/03/28 11:22:08;;;;;;;9.70;6.27;;;;;;;;;;775363;179;918974;-66
2022/03/28 11:24:38;;;;;;;9.57;6.60;;;;;;;;;;770825;180;919297;-66
2022/03/28 11:27:05;;;;;;;11.10;7.05;;;;;;;;;;774513;178;918445;-66
2022/03/28 11:29:30;;;;;;;9.80;6.20;;;;;;;;;;778285;176;880785;-67
2022/03/28 11:31:56;;;;;;;10.97;6.87;;;;;;;;;;763801;180;919191;-66
2022/03/28 11:34:22;;;;;;;11.60;7.00;;;;;;;;;;764692;180;920242;-68
2022/03/28 11:36:48;;;;;;;12.03;7.10;;;;;;;;;;775023;182;920075;-65
2022/03/28 11:39:21;;;;;;;11.47;7.27;;;;;;;;;;768553;182;920554;-66
2022/03/28 11:41:40;;;;;;;10.57;7.00;;;;;;;;;;766560;181;919450;-66
2022/03/28 11:44:05;;;;;;;10.93;7.07;;;;;;;;;;774757;181;918591;-67
2022/03/28 11:46:32;;;;;;;9.77;6.80;;;;;;;;;;775665;179;942445;-66
2022/03/28 11:49:06;;;;;;;11.20;5.70;;;;;;;;;;779734;177;918784;-66
2022/03/28 11:51:32;;;;;;;11.20;7.40;;;;;;;;;;770507;179;919756;-66
2022/03/28 11:53:59;;;;;;;10.40;7.10;;;;;;;;;;775412;179;919000;-65
2022/03/28 11:56:25;;;;;;;13.53;8.00;;;;;;;;;;765674;180;919541;-69
2022/03/28 11:58:51;;;;;;;13.63;7.77;;;;;;;;;;766667;179;919072;-67
2022/03/28 12:01:17;;;;;;;13.10;7.20;;;;;;;;;;781428;179;910098;-66
2022/03/28 12:03:52;;;;;;;10.90;7.23;;;;;;;;;;782301;178;920171;-66
2022/03/28 12:06:24;;;;;;;11.23;7.70;;;;;;;;;;766541;179;919337;-67
2022/03/28 12:08:50;;;;;;;13.53;7.10;;;;;;;;;;764641;180;919040;-66
2022/03/28 12:11:16;;;;;;;12.53;7.80;;;;;;;;;;772086;179;919735;-68
2022/03/28 12:13:42;;;;;;;13.03;7.70;;;;;;;;;;768344;180;919887;-66
2022/03/28 12:16:08;;;;;;;14.03;7.60;;;;;;;;;;767315;179;919966;-67
2022/03/28 12:18:33;;;;;;;14.13;7.60;;;;;;;;;;778418;179;917900;-65
2022/03/28 12:20:59;;;;;;;15.73;7.60;;;;;;;;;;776570;179;919167;-67
2022/03/28 12:23:26;;;;;;;13.03;7.63;;;;;;;;;;769797;180;920317;-64
2022/03/28 12:25:51;;;;;;;9.63;6.97;;;;;;;;;;770666;179;934525;-69
2022/03/28 12:28:18;;;;;;;17.07;7.70;;;;;;;;;;784086;177;1017510;-67
2022/03/28 12:30:47;;;;;;;12.93;7.90;;;;;;;;;;767729;180;928665;-67
2022/03/28 12:33:14;;;;;;;10.40;6.63;;;;;;;;;;767877;178;919001;-67
2022/03/28 12:35:41;;;;;;;10.60;5.77;;;;;;;;;;769623;178;920033;-67
2022/03/28 12:38:07;;;;;;;17.47;6.77;;;;;;;;;;777309;178;919453;-65
2022/03/28 12:40:32;;;;;;;11.80;6.80;;;;;;;;;;773936;177;919438;-64
2022/03/28 12:42:58;;;;;;;9.50;6.90;;;;;;;;;;772885;178;919169;-65
2022/03/28 12:45:23;;;;;;;9.63;6.67;;;;;;;;;;781444;179;934144;-67
2022/03/28 12:47:54;;;;;;;9.93;5.83;;;;;;;;;;772886;180;919037;-66
2022/03/28 12:50:20;;;;;;;9.90;6.47;;;;;;;;;;773622;179;932429;-66
2022/03/28 12:52:46;;;;;;;11.53;5.40;;;;;;;;;;770636;179;919627;-67
2022/03/28 12:55:12;;;;;;;10.70;6.57;;;;;;;;;;775440;179;920236;-67
2022/03/28 12:57:39;;;;;;;9.27;6.73;;;;;;;;;;775108;179;918807;-67
2022/03/28 13:00:05;;;;;;;6.63;5.00;;;;;;;;;;777456;179;624714;-66
2022/03/28 13:02:29;;;;;;;9.93;5.97;;;;;;;;;;776422;179;623265;-67
2022/03/28 13:04:56;;;;;;;8.90;5.63;;;;;;;;;;772000;180;816787;-67
2022/03/28 13:07:23;;;;;;;8.50;5.27;;;;;;;;;;778640;177;921140;-68
2022/03/28 13:09:52;;;;;;;8.00;5.73;;;;;;;;;;775624;180;617687;-68
2022/03/28 13:12:18;;;;;;;10.23;5.10;;;;;;;;;;784713;179;642519;-67
2022/03/28 13:14:45;;;;;;;7.90;5.07;;;;;;;;;;776350;177;613255;-66
2022/03/28 13:17:12;;;;;;;8.23;4.80;;;;;;;;;;775669;178;715736;-66
2022/03/28 13:19:37;;;;;;;8.90;6.03;;;;;;;;;;785599;176;632643;-67
2022/03/28 13:22:05;;;;;;;7.27;4.10;;;;;;;;;;781082;177;616851;-67
2022/03/28 13:24:31;;;;;;;12.83;5.10;;;;;;;;;;779090;179;636990;-66
2022/03/28 13:28:01;;;;;;;8.23;5.13;;;;;;;;;;781524;180;635325;-66
2022/03/28 13:29:23;;;;;;;6.47;4.27;;;;;;;;;;761135;182;919444;-66
2022/03/28 13:31:49;;;;;;;8.83;4.33;;;;;;;;;;771221;179;936960;-68
2022/03/28 13:34:15;;;;;;;10.50;6.40;;;;;;;;;;775125;179;817096;-67
2022/03/28 13:36:41;;;;;;;8.00;5.13;;;;;;;;;;774764;179;919232;-68
2022/03/28 13:39:07;;;;;;;7.37;4.63;;;;;;;;;;772569;179;919658;-66
2022/03/28 13:41:33;;;;;;;9.57;5.33;;;;;;;;;;771455;179;1021372;-67
2022/03/28 13:43:58;;;;;;;10.87;5.80;;;;;;;;;;777264;178;628017;-67
2022/03/28 13:46:24;;;;;;;10.87;5.37;;;;;;;;;;770505;179;929080;-63
2022/03/28 13:48:51;;;;;;;10.40;5.40;;;;;;;;;;779356;176;925885;-67
2022/03/28 13:51:16;;;;;;;8.23;5.17;;;;;;;;;;778594;180;918260;-67
2022/03/28 13:53:42;;;;;;;9.50;5.20;;;;;;;;;;769716;180;919076;-67
2022/03/28 13:56:08;;;;;;;7.60;4.67;;;;;;;;;;768579;180;917948;-66
2022/03/28 13:58:33;;;;;;;7.23;4.80;;;;;;;;;;772592;177;919359;-67
2022/03/28 14:00:59;;;;;;;7.03;5.03;;;;;;;;;;783485;176;918622;-66
2022/03/28 14:03:25;;;;;;;7.53;4.53;;;;;;;;;;775629;177;787897;-68
2022/03/28 14:05:51;;;;;;;8.83;6.00;;;;;;;;;;767080;179;1122400;-67
2022/03/28 14:08:17;;;;;;;8.70;5.10;;;;;;;;;;773533;178;918966;-65
2022/03/28 14:10:43;;;;;;;47.77;8.67;;;;;;;;;;769341;181;919546;-68